createdAt,value
2022-07-26T00:00:04.631Z,96.21
2022-07-26T00:04:56.259Z,96.35
2022-07-26T00:09:48.499Z,96.96
2022-07-26T00:14:40.360Z,96.95
2022-07-26T00:19:32.761Z,96.64
2022-07-26T00:24:24.386Z,96.98
2022-07-26T00:29:16.010Z,97.58
2022-07-26T00:34:07.611Z,95.06
2022-07-26T00:38:59.226Z,91.96
2022-07-26T00:43:56.037Z,91.34
2022-07-26T00:48:47.725Z,91.52
2022-07-26T00:53:39.435Z,91.57
2022-07-26T00:58:31.103Z,92.38
2022-07-26T01:03:22.719Z,92.35
2022-07-26T01:08:21.067Z,92.87
2022-07-26T01:13:13.313Z,92.54
2022-07-26T01:18:05.005Z,92.44
2022-07-26T01:22:56.712Z,91.89
2022-07-26T01:27:48.363Z,92.07
2022-07-26T01:32:40.236Z,92.16
2022-07-26T01:37:31.965Z,92.40
2022-07-26T01:42:23.631Z,93.20
2022-07-26T01:47:15.350Z,93.09
2022-07-26T01:52:07.024Z,93.58
2022-07-26T01:56:59.000Z,93.44
2022-07-26T02:01:50.712Z,93.34
2022-07-26T02:06:42.429Z,93.12
2022-07-26T02:11:36.034Z,92.97
2022-07-26T02:16:27.835Z,93.50
2022-07-26T02:21:19.554Z,93.23
2022-07-26T02:26:11.338Z,92.80
2022-07-26T02:31:03.084Z,91.85
2022-07-26T02:35:54.811Z,91.77
2022-07-26T02:41:01.618Z,90.74
2022-07-26T02:46:01.026Z,90.82
2022-07-26T02:50:53.618Z,91.08
2022-07-26T02:55:45.217Z,91.09
2022-07-26T03:00:36.841Z,91.80
2022-07-26T03:05:28.628Z,91.33
2022-07-26T03:10:20.464Z,91.34
2022-07-26T03:15:12.694Z,91.65
2022-07-26T03:20:05.208Z,91.38
2022-07-26T03:24:56.937Z,91.32
2022-07-26T03:29:48.571Z,91.87
2022-07-26T03:34:40.211Z,91.94
2022-07-26T03:39:31.908Z,91.93
2022-07-26T03:44:23.561Z,92.33
2022-07-26T03:49:17.135Z,93.17
2022-07-26T03:54:09.561Z,93.11
2022-07-26T03:59:08.247Z,92.73
2022-07-26T04:04:00.076Z,92.44
2022-07-26T04:08:53.618Z,92.31
2022-07-26T04:13:45.240Z,93.06
2022-07-26T04:18:38.671Z,92.80
2022-07-26T04:23:30.297Z,92.60
2022-07-26T04:28:22.042Z,92.78
2022-07-26T04:33:13.703Z,92.24
2022-07-26T04:38:05.388Z,92.91
2022-07-26T04:42:57.017Z,93.89
2022-07-26T04:47:50.790Z,94.54
2022-07-26T04:52:42.607Z,94.60
2022-07-26T04:57:34.926Z,94.36
2022-07-26T05:02:28.065Z,94.70
2022-07-26T05:07:19.799Z,94.62
2022-07-26T05:12:11.507Z,94.61
2022-07-26T05:17:08.696Z,93.83
2022-07-26T05:22:01.982Z,94.24
2022-07-26T05:26:58.488Z,94.58
2022-07-26T05:31:50.323Z,94.89
2022-07-26T05:36:41.983Z,94.57
2022-07-26T05:41:33.598Z,94.31
2022-07-26T05:46:25.413Z,94.98
2022-07-26T05:51:17.130Z,94.02
2022-07-26T05:56:09.116Z,94.02
2022-07-26T06:01:00.792Z,93.79
2022-07-26T06:05:55.604Z,93.23
2022-07-26T06:10:51.040Z,93.39
2022-07-26T06:15:43.169Z,92.82
2022-07-26T06:20:38.018Z,92.11
2022-07-26T06:25:29.666Z,92.04
2022-07-26T06:30:21.293Z,91.17
2022-07-26T06:35:14.560Z,91.87
2022-07-26T06:40:08.357Z,90.03
2022-07-26T06:45:01.019Z,90.68
2022-07-26T06:49:52.777Z,88.93
2022-07-26T06:54:44.678Z,85.09
2022-07-26T06:59:36.354Z,78.76
2022-07-26T07:04:29.811Z,76.56
2022-07-26T07:09:21.516Z,75.94
2022-07-26T07:14:13.114Z,75.02
2022-07-26T07:19:04.717Z,72.69
2022-07-26T07:23:56.354Z,72.39
2022-07-26T07:28:48.652Z,69.01
2022-07-26T07:33:52.478Z,66.53
2022-07-26T07:38:45.479Z,66.95
2022-07-26T07:43:37.617Z,68.52
2022-07-26T07:48:29.373Z,65.42
2022-07-26T07:53:21.067Z,64.27
2022-07-26T07:58:13.278Z,60.39
2022-07-26T08:03:06.193Z,57.16
2022-07-26T08:07:58.210Z,57.47
2022-07-26T08:12:51.295Z,59.01
2022-07-26T08:17:43.331Z,58.12
2022-07-26T08:22:36.268Z,59.58
2022-07-26T08:27:27.977Z,61.21
2022-07-26T08:32:19.597Z,59.75
2022-07-26T08:37:18.681Z,57.67
2022-07-26T08:42:22.808Z,57.71
2022-07-26T08:47:16.504Z,55.55
2022-07-26T08:52:27.348Z,55.88
2022-07-26T08:57:19.094Z,55.73
2022-07-26T09:02:13.158Z,56.75
2022-07-26T09:07:10.043Z,56.87
2022-07-26T09:12:32.129Z,56.71
2022-07-26T09:17:25.693Z,56.23
2022-07-26T09:22:17.394Z,56.05
2022-07-26T09:27:12.914Z,56.10
2022-07-26T09:32:22.551Z,57.43
2022-07-26T09:37:14.292Z,57.26
2022-07-26T09:47:21.682Z,56.35
2022-07-26T09:52:18.339Z,56.62
2022-07-26T09:57:10.840Z,54.38
2022-07-26T10:02:02.658Z,55.65
2022-07-26T10:06:55.874Z,55.06
2022-07-26T10:11:59.934Z,53.15
2022-07-26T10:16:51.910Z,53.18
2022-07-26T10:21:43.777Z,52.79
2022-07-26T10:26:37.552Z,53.07
2022-07-26T10:31:30.517Z,53.21
2022-07-26T10:36:28.799Z,52.42
2022-07-26T10:41:32.016Z,52.36
2022-07-26T10:46:27.030Z,52.02
2022-07-26T10:51:32.929Z,53.63
2022-07-26T10:56:24.561Z,53.33
2022-07-26T11:01:16.597Z,54.01
2022-07-26T11:06:19.047Z,52.81
2022-07-26T11:11:10.907Z,52.51
2022-07-26T11:16:05.700Z,52.68
2022-07-26T11:21:08.853Z,52.29
2022-07-26T11:26:03.348Z,52.37
2022-07-26T11:31:01.551Z,52.86
2022-07-26T11:35:55.559Z,52.36
2022-07-26T11:40:48.628Z,48.84
2022-07-26T11:45:42.068Z,48.92
2022-07-26T11:50:33.854Z,49.34
2022-07-26T11:55:30.304Z,49.13
2022-07-26T12:00:23.689Z,46.34
2022-07-26T12:05:22.196Z,44.24
2022-07-26T12:10:16.709Z,44.04
2022-07-26T12:15:08.522Z,45.91
2022-07-26T12:20:15.203Z,44.67
2022-07-26T12:25:09.261Z,43.66
2022-07-26T12:30:01.039Z,43.92
2022-07-26T12:35:09.319Z,42.33
2022-07-26T12:40:12.879Z,42.64
2022-07-26T12:45:08.567Z,42.36
2022-07-26T12:50:01.397Z,44.38
2022-07-26T12:54:53.578Z,43.95
2022-07-26T12:59:45.876Z,43.87
2022-07-26T13:04:38.155Z,45.74
2022-07-26T13:09:30.024Z,45.27
2022-07-26T13:14:21.800Z,44.08
2022-07-26T13:19:13.572Z,44.43
2022-07-26T13:24:07.459Z,45.31
2022-07-26T13:29:01.089Z,44.47
2022-07-26T13:33:52.751Z,43.05
2022-07-26T13:38:44.461Z,42.42
2022-07-26T13:43:36.660Z,42.94
2022-07-26T13:48:28.477Z,43.88
2022-07-26T13:53:20.583Z,44.22
2022-07-26T13:58:12.229Z,45.39
2022-07-26T14:03:04.175Z,46.54
2022-07-26T14:07:57.557Z,46.30
2022-07-26T14:12:49.969Z,46.16
2022-07-26T14:17:41.667Z,45.58
2022-07-26T14:22:33.360Z,46.49
2022-07-26T14:27:25.017Z,46.20
2022-07-26T14:32:21.320Z,45.52
2022-07-26T14:37:42.634Z,46.07
2022-07-26T14:42:25.219Z,45.30
2022-07-26T14:47:16.926Z,46.08
2022-07-26T14:52:08.653Z,45.13
2022-07-26T14:57:00.325Z,44.47
2022-07-26T15:01:52.045Z,45.15
2022-07-26T15:06:43.772Z,44.84
2022-07-26T15:11:35.550Z,42.98
2022-07-26T15:16:27.365Z,43.52
2022-07-26T15:21:19.315Z,45.04
2022-07-26T15:26:11.044Z,43.80
2022-07-26T15:31:02.657Z,44.18
2022-07-26T15:35:55.529Z,43.31
2022-07-26T15:40:47.440Z,44.44
2022-07-26T15:45:41.403Z,44.04
2022-07-26T15:50:33.531Z,44.16
2022-07-26T15:55:26.646Z,44.83
2022-07-26T16:00:18.735Z,43.60
2022-07-26T16:05:11.015Z,44.78
2022-07-26T16:10:02.713Z,43.96
2022-07-26T16:14:54.359Z,45.31
2022-07-26T16:19:46.044Z,45.70
2022-07-26T16:24:37.703Z,45.33
2022-07-26T16:29:29.496Z,45.61
2022-07-26T16:34:21.173Z,45.34
2022-07-26T16:39:13.881Z,45.43
2022-07-26T16:44:05.999Z,45.62
2022-07-26T16:48:57.878Z,45.89
2022-07-26T16:53:51.481Z,46.78
2022-07-26T16:58:43.286Z,45.22
2022-07-26T17:03:35.193Z,45.87
2022-07-26T17:08:27.283Z,46.50
2022-07-26T17:13:18.979Z,46.76
2022-07-26T17:18:10.679Z,46.38
2022-07-26T17:23:02.335Z,46.94
2022-07-26T17:27:54.169Z,47.73
2022-07-26T17:32:46.221Z,46.35
2022-07-26T17:37:38.015Z,47.45
2022-07-26T17:42:31.963Z,47.28
2022-07-26T17:47:28.768Z,47.33
2022-07-26T17:52:21.478Z,48.40
2022-07-26T17:57:13.116Z,48.84
2022-07-26T18:02:04.977Z,48.30
2022-07-26T18:06:56.685Z,48.86
2022-07-26T18:11:48.670Z,48.81
2022-07-26T18:16:41.571Z,49.43
2022-07-26T18:21:33.276Z,50.11
2022-07-26T18:26:25.050Z,49.95
2022-07-26T18:31:16.797Z,50.48
2022-07-26T18:36:08.505Z,50.27
2022-07-26T18:41:00.150Z,50.54
2022-07-26T18:45:51.898Z,50.55
2022-07-26T18:50:44.034Z,50.40
2022-07-26T18:55:35.742Z,50.47
2022-07-26T19:00:29.642Z,50.24
2022-07-26T19:05:22.910Z,50.53
2022-07-26T19:10:15.119Z,51.03
2022-07-26T19:15:07.601Z,51.61
2022-07-26T19:20:00.809Z,52.23
2022-07-26T19:24:52.764Z,52.64
2022-07-26T19:29:44.994Z,53.03
2022-07-26T19:34:36.725Z,53.19
2022-07-26T19:39:28.409Z,53.30
2022-07-26T19:44:20.323Z,53.72
2022-07-26T19:49:12.792Z,54.19
2022-07-26T19:54:05.726Z,54.05
2022-07-26T19:58:58.159Z,54.27
2022-07-26T20:03:50.187Z,54.79
2022-07-26T20:08:42.179Z,55.05
2022-07-26T20:13:33.875Z,55.49
2022-07-26T20:18:28.366Z,55.65
2022-07-26T20:23:20.482Z,56.09
2022-07-26T20:28:12.154Z,56.90
2022-07-26T20:33:04.042Z,56.95
2022-07-26T20:37:56.469Z,57.42
2022-07-26T20:42:50.079Z,58.30
2022-07-26T20:47:43.210Z,58.60
2022-07-26T20:52:35.112Z,59.45
2022-07-26T20:57:26.738Z,59.95
2022-07-26T21:02:18.491Z,60.39
2022-07-26T21:07:10.255Z,61.29
2022-07-26T21:12:01.972Z,61.90
2022-07-26T21:16:53.800Z,62.25
2022-07-26T21:21:45.533Z,62.77
2022-07-26T21:26:37.393Z,63.69
2022-07-26T21:31:29.128Z,63.35
2022-07-26T21:36:20.756Z,64.05
2022-07-26T21:41:13.606Z,64.70
2022-07-26T21:46:10.383Z,65.00
2022-07-26T21:51:04.274Z,65.13
2022-07-26T21:55:57.142Z,65.22
2022-07-26T22:00:48.989Z,66.07
2022-07-26T22:05:43.957Z,66.40
2022-07-26T22:10:42.344Z,66.37
2022-07-26T22:15:36.550Z,67.31
2022-07-26T22:20:30.994Z,67.44
2022-07-26T22:25:22.688Z,67.95
2022-07-26T22:30:14.560Z,68.65
2022-07-26T22:35:06.527Z,69.31
2022-07-26T22:39:58.210Z,69.79
2022-07-26T22:44:49.860Z,70.16
2022-07-26T22:49:41.546Z,69.83
2022-07-26T22:54:33.239Z,70.71
2022-07-26T22:59:25.435Z,71.04
2022-07-26T23:04:17.253Z,70.28
2022-07-26T23:09:09.363Z,71.07
2022-07-26T23:14:01.254Z,71.18
2022-07-26T23:18:52.923Z,71.17
2022-07-26T23:23:44.570Z,71.50
2022-07-26T23:28:38.462Z,72.20
2022-07-26T23:33:53.076Z,72.18
2022-07-26T23:38:42.336Z,72.85
2022-07-26T23:43:33.958Z,72.89
2022-07-26T23:48:25.763Z,73.39
2022-07-26T23:53:17.403Z,73.72
2022-07-26T23:58:11.925Z,73.84
